sensor_id;sensor_type;location;lat;lon;timestamp;temperature;humidity
20977;DHT22;10647;51.016;3.720;2022-08-01T00:00:40;22.70;99.90
20977;DHT22;10647;51.016;3.720;2022-08-01T00:03:08;22.70;99.90
20977;DHT22;10647;51.016;3.720;2022-08-01T00:05:35;22.70;99.90
20977;DHT22;10647;51.016;3.720;2022-08-01T00:08:03;22.70;99.90
20977;DHT22;10647;51.016;3.720;2022-08-01T00:10:31;22.80;99.90
20977;DHT22;10647;51.016;3.720;2022-08-01T00:13:01;22.80;99.90
20977;DHT22;10647;51.016;3.720;2022-08-01T00:15:29;22.70;99.90
20977;DHT22;10647;51.016;3.720;2022-08-01T00:17:57;22.70;99.90
20977;DHT22;10647;51.016;3.720;2022-08-01T00:20:25;22.60;99.90
20977;DHT22;10647;51.016;3.720;2022-08-01T00:22:52;22.60;99.90
20977;DHT22;10647;51.016;3.720;2022-08-01T00:25:22;22.60;99.90
20977;DHT22;10647;51.016;3.720;2022-08-01T00:27:49;22.60;99.90
20977;DHT22;10647;51.016;3.720;2022-08-01T00:30:17;22.50;99.90
20977;DHT22;10647;51.016;3.720;2022-08-01T00:32:45;22.60;99.90
20977;DHT22;10647;51.016;3.720;2022-08-01T00:35:13;22.60;99.90
20977;DHT22;10647;51.016;3.720;2022-08-01T00:37:41;22.60;99.90
20977;DHT22;10647;51.016;3.720;2022-08-01T00:40:08;22.60;99.90
20977;DHT22;10647;51.016;3.720;2022-08-01T00:42:37;22.60;99.90
20977;DHT22;10647;51.016;3.720;2022-08-01T00:45:05;22.60;99.90
20977;DHT22;10647;51.016;3.720;2022-08-01T00:47:33;22.60;99.90
20977;DHT22;10647;51.016;3.720;2022-08-01T00:50:00;22.50;99.90
20977;DHT22;10647;51.016;3.720;2022-08-01T00:52:31;22.50;99.90
20977;DHT22;10647;51.016;3.720;2022-08-01T00:54:58;22.50;99.90
20977;DHT22;10647;51.016;3.720;2022-08-01T00:57:26;22.50;99.90
20977;DHT22;10647;51.016;3.720;2022-08-01T00:59:54;22.50;99.90
20977;DHT22;10647;51.016;3.720;2022-08-01T01:02:21;22.50;99.90
20977;DHT22;10647;51.016;3.720;2022-08-01T01:04:49;22.50;99.90
20977;DHT22;10647;51.016;3.720;2022-08-01T01:07:24;22.50;99.90
20977;DHT22;10647;51.016;3.720;2022-08-01T01:18:24;22.50;99.90
20977;DHT22;10647;51.016;3.720;2022-08-01T01:32:04;22.30;99.90
20977;DHT22;10647;51.016;3.720;2022-08-01T01:34:34;22.20;99.90
20977;DHT22;10647;51.016;3.720;2022-08-01T01:37:04;22.20;99.90
20977;DHT22;10647;51.016;3.720;2022-08-01T01:39:33;22.20;99.90
20977;DHT22;10647;51.016;3.720;2022-08-01T01:42:04;22.20;99.90
20977;DHT22;10647;51.016;3.720;2022-08-01T01:44:32;22.10;99.90
20977;DHT22;10647;51.016;3.720;2022-08-01T01:47:01;22.10;99.90
20977;DHT22;10647;51.016;3.720;2022-08-01T01:49:30;22.00;99.90
20977;DHT22;10647;51.016;3.720;2022-08-01T01:52:00;22.00;99.90
20977;DHT22;10647;51.016;3.720;2022-08-01T01:54:32;22.00;99.90
20977;DHT22;10647;51.016;3.720;2022-08-01T01:57:02;22.00;99.90
20977;DHT22;10647;51.016;3.720;2022-08-01T01:59:33;22.00;99.90
20977;DHT22;10647;51.016;3.720;2022-08-01T02:02:03;21.80;99.90
20977;DHT22;10647;51.016;3.720;2022-08-01T02:04:33;21.80;99.90
20977;DHT22;10647;51.016;3.720;2022-08-01T02:07:03;21.70;99.90
20977;DHT22;10647;51.016;3.720;2022-08-01T02:09:34;21.60;99.90
20977;DHT22;10647;51.016;3.720;2022-08-01T02:12:03;21.50;99.90
20977;DHT22;10647;51.016;3.720;2022-08-01T02:14:33;21.40;99.90
20977;DHT22;10647;51.016;3.720;2022-08-01T02:17:06;21.30;99.90
20977;DHT22;10647;51.016;3.720;2022-08-01T02:19:35;21.20;99.90
20977;DHT22;10647;51.016;3.720;2022-08-01T02:22:12;21.10;99.90
20977;DHT22;10647;51.016;3.720;2022-08-01T02:25:04;21.10;99.90
20977;DHT22;10647;51.016;3.720;2022-08-01T02:27:34;21.10;99.90
20977;DHT22;10647;51.016;3.720;2022-08-01T02:30:04;21.00;99.90
20977;DHT22;10647;51.016;3.720;2022-08-01T02:32:38;21.00;99.90
20977;DHT22;10647;51.016;3.720;2022-08-01T02:35:07;21.00;99.90
20977;DHT22;10647;51.016;3.720;2022-08-01T02:37:37;21.10;99.90
20977;DHT22;10647;51.016;3.720;2022-08-01T02:40:13;21.20;99.90
20977;DHT22;10647;51.016;3.720;2022-08-01T02:42:48;21.20;99.90
20977;DHT22;10647;51.016;3.720;2022-08-01T02:45:17;21.20;99.90
20977;DHT22;10647;51.016;3.720;2022-08-01T02:47:46;21.30;99.90
20977;DHT22;10647;51.016;3.720;2022-08-01T02:50:15;21.20;99.90
20977;DHT22;10647;51.016;3.720;2022-08-01T02:53:03;21.20;99.90
20977;DHT22;10647;51.016;3.720;2022-08-01T02:55:51;21.20;99.90
20977;DHT22;10647;51.016;3.720;2022-08-01T02:58:20;21.20;99.90
20977;DHT22;10647;51.016;3.720;2022-08-01T03:00:50;21.20;99.90
20977;DHT22;10647;51.016;3.720;2022-08-01T03:03:18;21.20;99.90
20977;DHT22;10647;51.016;3.720;2022-08-01T03:05:49;21.20;99.90
20977;DHT22;10647;51.016;3.720;2022-08-01T03:08:17;21.20;99.90
20977;DHT22;10647;51.016;3.720;2022-08-01T03:10:47;21.20;99.90
20977;DHT22;10647;51.016;3.720;2022-08-01T03:13:16;21.20;99.90
20977;DHT22;10647;51.016;3.720;2022-08-01T03:15:46;21.20;99.90
20977;DHT22;10647;51.016;3.720;2022-08-01T03:18:15;21.20;99.90
20977;DHT22;10647;51.016;3.720;2022-08-01T03:20:43;21.30;99.90
20977;DHT22;10647;51.016;3.720;2022-08-01T03:23:12;21.20;99.90
20977;DHT22;10647;51.016;3.720;2022-08-01T03:25:44;21.20;99.90
20977;DHT22;10647;51.016;3.720;2022-08-01T03:28:13;21.20;99.90
20977;DHT22;10647;51.016;3.720;2022-08-01T03:30:43;21.20;99.90
20977;DHT22;10647;51.016;3.720;2022-08-01T03:33:11;21.20;99.90
20977;DHT22;10647;51.016;3.720;2022-08-01T03:35:42;21.20;99.90
20977;DHT22;10647;51.016;3.720;2022-08-01T03:38:09;21.20;99.90
20977;DHT22;10647;51.016;3.720;2022-08-01T03:40:53;21.20;99.90
20977;DHT22;10647;51.016;3.720;2022-08-01T03:43:24;21.20;99.90
20977;DHT22;10647;51.016;3.720;2022-08-01T03:45:53;21.20;99.90
20977;DHT22;10647;51.016;3.720;2022-08-01T03:48:22;21.30;99.90
20977;DHT22;10647;51.016;3.720;2022-08-01T03:50:52;21.30;99.90
20977;DHT22;10647;51.016;3.720;2022-08-01T03:53:23;21.30;99.90
20977;DHT22;10647;51.016;3.720;2022-08-01T03:55:52;21.30;99.90
20977;DHT22;10647;51.016;3.720;2022-08-01T03:58:21;21.30;99.90
20977;DHT22;10647;51.016;3.720;2022-08-01T04:00:49;21.40;99.90
20977;DHT22;10647;51.016;3.720;2022-08-01T04:03:17;21.40;99.90
20977;DHT22;10647;51.016;3.720;2022-08-01T04:05:45;21.40;99.90
20977;DHT22;10647;51.016;3.720;2022-08-01T04:08:12;21.30;99.90
20977;DHT22;10647;51.016;3.720;2022-08-01T04:10:40;21.30;99.90
20977;DHT22;10647;51.016;3.720;2022-08-01T04:13:08;21.30;99.90
20977;DHT22;10647;51.016;3.720;2022-08-01T04:15:35;21.30;99.90
20977;DHT22;10647;51.016;3.720;2022-08-01T04:18:03;21.40;99.90
20977;DHT22;10647;51.016;3.720;2022-08-01T04:20:30;21.40;99.90
20977;DHT22;10647;51.016;3.720;2022-08-01T04:22:58;21.40;99.90
20977;DHT22;10647;51.016;3.720;2022-08-01T04:25:29;21.40;99.90
20977;DHT22;10647;51.016;3.720;2022-08-01T04:27:57;21.30;99.90
20977;DHT22;10647;51.016;3.720;2022-08-01T04:30:28;21.30;99.90
20977;DHT22;10647;51.016;3.720;2022-08-01T04:32:59;21.20;99.90
20977;DHT22;10647;51.016;3.720;2022-08-01T04:35:27;21.20;99.90
20977;DHT22;10647;51.016;3.720;2022-08-01T04:37:56;21.30;99.90
20977;DHT22;10647;51.016;3.720;2022-08-01T04:40:28;21.30;99.90
20977;DHT22;10647;51.016;3.720;2022-08-01T04:42:57;21.40;99.90
20977;DHT22;10647;51.016;3.720;2022-08-01T04:45:24;21.40;99.90
20977;DHT22;10647;51.016;3.720;2022-08-01T04:47:53;21.50;99.90
20977;DHT22;10647;51.016;3.720;2022-08-01T04:50:21;21.50;99.90
20977;DHT22;10647;51.016;3.720;2022-08-01T04:52:49;21.50;99.90
20977;DHT22;10647;51.016;3.720;2022-08-01T04:55:17;21.60;99.90
20977;DHT22;10647;51.016;3.720;2022-08-01T04:57:46;21.60;99.90
20977;DHT22;10647;51.016;3.720;2022-08-01T05:00:15;21.60;99.90
20977;DHT22;10647;51.016;3.720;2022-08-01T05:02:45;21.50;99.90
20977;DHT22;10647;51.016;3.720;2022-08-01T05:05:13;21.50;99.90
20977;DHT22;10647;51.016;3.720;2022-08-01T05:07:41;21.50;99.90
20977;DHT22;10647;51.016;3.720;2022-08-01T05:10:08;21.60;99.90
20977;DHT22;10647;51.016;3.720;2022-08-01T05:12:36;21.70;99.90
20977;DHT22;10647;51.016;3.720;2022-08-01T05:15:04;21.70;99.90
20977;DHT22;10647;51.016;3.720;2022-08-01T05:17:32;21.70;99.90
20977;DHT22;10647;51.016;3.720;2022-08-01T05:20:00;21.70;99.90
20977;DHT22;10647;51.016;3.720;2022-08-01T05:22:28;21.80;99.90
20977;DHT22;10647;51.016;3.720;2022-08-01T05:24:55;22.00;99.90
20977;DHT22;10647;51.016;3.720;2022-08-01T05:27:23;22.10;99.90
20977;DHT22;10647;51.016;3.720;2022-08-01T05:29:50;22.20;99.90
20977;DHT22;10647;51.016;3.720;2022-08-01T05:32:18;22.30;99.90
20977;DHT22;10647;51.016;3.720;2022-08-01T05:34:46;22.30;99.90
20977;DHT22;10647;51.016;3.720;2022-08-01T05:37:14;22.30;99.90
20977;DHT22;10647;51.016;3.720;2022-08-01T05:39:45;22.30;99.90
20977;DHT22;10647;51.016;3.720;2022-08-01T05:42:18;22.40;99.90
20977;DHT22;10647;51.016;3.720;2022-08-01T05:44:48;22.40;99.90
20977;DHT22;10647;51.016;3.720;2022-08-01T05:47:20;22.40;99.90
20977;DHT22;10647;51.016;3.720;2022-08-01T05:49:47;22.40;99.90
20977;DHT22;10647;51.016;3.720;2022-08-01T05:52:15;22.50;99.90
20977;DHT22;10647;51.016;3.720;2022-08-01T05:54:42;22.60;99.90
20977;DHT22;10647;51.016;3.720;2022-08-01T05:57:10;22.50;99.90
20977;DHT22;10647;51.016;3.720;2022-08-01T05:59:38;22.50;99.90
20977;DHT22;10647;51.016;3.720;2022-08-01T06:02:06;22.60;99.90
20977;DHT22;10647;51.016;3.720;2022-08-01T06:04:34;22.60;99.90
20977;DHT22;10647;51.016;3.720;2022-08-01T06:07:01;22.80;99.90
20977;DHT22;10647;51.016;3.720;2022-08-01T06:09:29;22.90;99.90
20977;DHT22;10647;51.016;3.720;2022-08-01T06:11:57;23.00;99.90
20977;DHT22;10647;51.016;3.720;2022-08-01T06:14:24;23.20;99.90
20977;DHT22;10647;51.016;3.720;2022-08-01T06:16:52;23.40;99.90
20977;DHT22;10647;51.016;3.720;2022-08-01T06:19:19;23.60;99.90
20977;DHT22;10647;51.016;3.720;2022-08-01T06:21:47;23.70;99.90
20977;DHT22;10647;51.016;3.720;2022-08-01T06:24:14;23.80;99.90
20977;DHT22;10647;51.016;3.720;2022-08-01T06:26:42;23.80;99.90
20977;DHT22;10647;51.016;3.720;2022-08-01T06:29:10;23.80;99.90
20977;DHT22;10647;51.016;3.720;2022-08-01T06:31:37;23.90;99.90
20977;DHT22;10647;51.016;3.720;2022-08-01T06:34:05;23.90;99.90
20977;DHT22;10647;51.016;3.720;2022-08-01T06:36:32;23.90;99.90
20977;DHT22;10647;51.016;3.720;2022-08-01T06:39:00;24.00;99.90
20977;DHT22;10647;51.016;3.720;2022-08-01T06:41:27;24.10;99.90
20977;DHT22;10647;51.016;3.720;2022-08-01T06:43:55;24.20;99.90
20977;DHT22;10647;51.016;3.720;2022-08-01T06:46:22;24.30;99.90
20977;DHT22;10647;51.016;3.720;2022-08-01T06:48:50;24.20;99.90
20977;DHT22;10647;51.016;3.720;2022-08-01T06:51:17;24.20;99.90
20977;DHT22;10647;51.016;3.720;2022-08-01T06:53:46;24.10;99.90
20977;DHT22;10647;51.016;3.720;2022-08-01T06:56:14;24.10;99.90
20977;DHT22;10647;51.016;3.720;2022-08-01T06:58:42;24.20;99.90
20977;DHT22;10647;51.016;3.720;2022-08-01T07:01:09;24.30;99.90
20977;DHT22;10647;51.016;3.720;2022-08-01T07:03:37;24.50;99.90
20977;DHT22;10647;51.016;3.720;2022-08-01T07:06:05;24.40;99.90
20977;DHT22;10647;51.016;3.720;2022-08-01T07:08:32;24.40;99.90
20977;DHT22;10647;51.016;3.720;2022-08-01T07:11:08;24.40;99.90
20977;DHT22;10647;51.016;3.720;2022-08-01T07:13:36;24.40;99.90
20977;DHT22;10647;51.016;3.720;2022-08-01T07:16:04;24.50;99.90
20977;DHT22;10647;51.016;3.720;2022-08-01T07:18:38;24.70;99.90
20977;DHT22;10647;51.016;3.720;2022-08-01T07:21:08;24.80;99.90
20977;DHT22;10647;51.016;3.720;2022-08-01T07:23:39;25.00;99.90
20977;DHT22;10647;51.016;3.720;2022-08-01T07:26:07;25.00;99.90
20977;DHT22;10647;51.016;3.720;2022-08-01T07:28:34;25.00;99.90
20977;DHT22;10647;51.016;3.720;2022-08-01T07:31:02;24.80;99.90
20977;DHT22;10647;51.016;3.720;2022-08-01T07:33:29;24.80;99.90
20977;DHT22;10647;51.016;3.720;2022-08-01T07:35:57;24.80;99.90
20977;DHT22;10647;51.016;3.720;2022-08-01T07:38:24;24.80;99.90
20977;DHT22;10647;51.016;3.720;2022-08-01T07:40:52;24.90;99.90
20977;DHT22;10647;51.016;3.720;2022-08-01T07:43:21;25.10;99.90
20977;DHT22;10647;51.016;3.720;2022-08-01T07:45:48;25.30;99.90
20977;DHT22;10647;51.016;3.720;2022-08-01T07:48:16;25.50;99.90
20977;DHT22;10647;51.016;3.720;2022-08-01T07:50:50;25.60;99.90
20977;DHT22;10647;51.016;3.720;2022-08-01T07:53:18;25.80;99.90
20977;DHT22;10647;51.016;3.720;2022-08-01T07:55:46;26.00;99.90
20977;DHT22;10647;51.016;3.720;2022-08-01T07:58:15;26.10;99.90
20977;DHT22;10647;51.016;3.720;2022-08-01T08:00:42;26.00;99.90
20977;DHT22;10647;51.016;3.720;2022-08-01T08:03:10;25.90;99.90
20977;DHT22;10647;51.016;3.720;2022-08-01T08:05:38;25.80;99.90
20977;DHT22;10647;51.016;3.720;2022-08-01T08:08:06;25.80;99.90
20977;DHT22;10647;51.016;3.720;2022-08-01T08:10:34;26.10;99.90
20977;DHT22;10647;51.016;3.720;2022-08-01T08:13:02;26.30;99.90
20977;DHT22;10647;51.016;3.720;2022-08-01T08:15:30;26.50;99.90
20977;DHT22;10647;51.016;3.720;2022-08-01T08:17:57;26.60;99.90
20977;DHT22;10647;51.016;3.720;2022-08-01T08:20:25;26.80;99.90
20977;DHT22;10647;51.016;3.720;2022-08-01T08:22:55;26.90;99.90
20977;DHT22;10647;51.016;3.720;2022-08-01T08:25:25;27.00;99.90
20977;DHT22;10647;51.016;3.720;2022-08-01T08:27:53;26.80;99.90
20977;DHT22;10647;51.016;3.720;2022-08-01T08:30:21;26.70;99.90
20977;DHT22;10647;51.016;3.720;2022-08-01T08:32:49;26.60;99.90
20977;DHT22;10647;51.016;3.720;2022-08-01T08:35:18;27.00;99.90
20977;DHT22;10647;51.016;3.720;2022-08-01T08:37:46;27.30;99.90
20977;DHT22;10647;51.016;3.720;2022-08-01T08:40:14;27.60;99.90
20977;DHT22;10647;51.016;3.720;2022-08-01T08:42:43;27.50;99.90
20977;DHT22;10647;51.016;3.720;2022-08-01T08:45:12;27.20;99.90
20977;DHT22;10647;51.016;3.720;2022-08-01T08:47:42;27.10;99.90
20977;DHT22;10647;51.016;3.720;2022-08-01T08:50:12;27.20;99.90
20977;DHT22;10647;51.016;3.720;2022-08-01T08:52:40;27.70;99.90
20977;DHT22;10647;51.016;3.720;2022-08-01T08:55:09;28.00;99.90
20977;DHT22;10647;51.016;3.720;2022-08-01T08:57:43;28.40;99.90
20977;DHT22;10647;51.016;3.720;2022-08-01T09:00:12;29.10;99.90
20977;DHT22;10647;51.016;3.720;2022-08-01T09:02:42;29.50;98.80
20977;DHT22;10647;51.016;3.720;2022-08-01T09:05:10;30.00;98.00
20977;DHT22;10647;51.016;3.720;2022-08-01T09:07:38;30.30;97.00
20977;DHT22;10647;51.016;3.720;2022-08-01T09:10:07;30.60;96.10
20977;DHT22;10647;51.016;3.720;2022-08-01T09:12:37;30.40;95.70
20977;DHT22;10647;51.016;3.720;2022-08-01T09:15:04;30.50;95.30
20977;DHT22;10647;51.016;3.720;2022-08-01T09:17:40;30.50;94.80
20977;DHT22;10647;51.016;3.720;2022-08-01T09:20:08;30.60;94.10
20977;DHT22;10647;51.016;3.720;2022-08-01T09:22:37;30.50;93.60
20977;DHT22;10647;51.016;3.720;2022-08-01T09:25:09;30.60;93.40
20977;DHT22;10647;51.016;3.720;2022-08-01T09:27:38;30.90;92.80
20977;DHT22;10647;51.016;3.720;2022-08-01T09:30:14;31.30;92.40
20977;DHT22;10647;51.016;3.720;2022-08-01T09:33:00;31.50;91.60
20977;DHT22;10647;51.016;3.720;2022-08-01T09:35:30;31.20;91.10
20977;DHT22;10647;51.016;3.720;2022-08-01T09:38:21;31.00;90.60
20977;DHT22;10647;51.016;3.720;2022-08-01T09:40:57;30.90;91.00
20977;DHT22;10647;51.016;3.720;2022-08-01T09:43:28;31.00;90.60
20977;DHT22;10647;51.016;3.720;2022-08-01T09:45:56;31.10;90.50
20977;DHT22;10647;51.016;3.720;2022-08-01T09:48:24;31.20;90.20
20977;DHT22;10647;51.016;3.720;2022-08-01T09:50:53;31.30;89.90
20977;DHT22;10647;51.016;3.720;2022-08-01T09:53:21;31.50;89.30
20977;DHT22;10647;51.016;3.720;2022-08-01T09:55:48;31.40;88.80
20977;DHT22;10647;51.016;3.720;2022-08-01T09:58:23;31.30;88.70
20977;DHT22;10647;51.016;3.720;2022-08-01T10:00:58;31.30;88.90
20977;DHT22;10647;51.016;3.720;2022-08-01T10:03:27;31.10;88.80
20977;DHT22;10647;51.016;3.720;2022-08-01T10:05:56;31.20;88.50
20977;DHT22;10647;51.016;3.720;2022-08-01T10:08:24;31.30;87.70
20977;DHT22;10647;51.016;3.720;2022-08-01T10:11:09;31.30;87.60
20977;DHT22;10647;51.016;3.720;2022-08-01T10:13:37;31.60;87.00
20977;DHT22;10647;51.016;3.720;2022-08-01T10:16:06;31.80;86.20
20977;DHT22;10647;51.016;3.720;2022-08-01T10:18:34;31.90;85.70
20977;DHT22;10647;51.016;3.720;2022-08-01T10:21:03;31.90;85.70
20977;DHT22;10647;51.016;3.720;2022-08-01T10:23:34;31.70;85.40
20977;DHT22;10647;51.016;3.720;2022-08-01T10:26:02;31.60;85.10
20977;DHT22;10647;51.016;3.720;2022-08-01T10:28:32;31.60;85.20
20977;DHT22;10647;51.016;3.720;2022-08-01T10:31:01;31.70;84.90
20977;DHT22;10647;51.016;3.720;2022-08-01T10:33:32;31.80;84.70
20977;DHT22;10647;51.016;3.720;2022-08-01T10:36:00;31.70;84.60
20977;DHT22;10647;51.016;3.720;2022-08-01T10:38:27;31.50;84.80
20977;DHT22;10647;51.016;3.720;2022-08-01T10:40:57;31.30;85.30
20977;DHT22;10647;51.016;3.720;2022-08-01T10:43:26;31.10;85.70
20977;DHT22;10647;51.016;3.720;2022-08-01T10:45:54;31.00;86.00
20977;DHT22;10647;51.016;3.720;2022-08-01T10:48:53;30.90;85.90
20977;DHT22;10647;51.016;3.720;2022-08-01T10:51:19;30.80;86.20
20977;DHT22;10647;51.016;3.720;2022-08-01T10:53:52;30.80;86.20
20977;DHT22;10647;51.016;3.720;2022-08-01T10:56:21;30.60;86.70
20977;DHT22;10647;51.016;3.720;2022-08-01T10:58:49;30.60;86.80
20977;DHT22;10647;51.016;3.720;2022-08-01T11:04:09;30.80;85.30
20977;DHT22;10647;51.016;3.720;2022-08-01T11:09:38;31.20;84.80
20977;DHT22;10647;51.016;3.720;2022-08-01T11:20:35;32.10;81.70
20977;DHT22;10647;51.016;3.720;2022-08-01T11:28:18;32.60;79.90
20977;DHT22;10647;51.016;3.720;2022-08-01T11:30:52;32.90;79.60
20977;DHT22;10647;51.016;3.720;2022-08-01T11:41:27;33.20;76.00
20977;DHT22;10647;51.016;3.720;2022-08-01T11:46:52;33.80;74.50
20977;DHT22;10647;51.016;3.720;2022-08-01T11:49:49;34.00;73.60
20977;DHT22;10647;51.016;3.720;2022-08-01T11:52:29;34.20;72.30
20977;DHT22;10647;51.016;3.720;2022-08-01T11:55:06;34.30;71.80
20977;DHT22;10647;51.016;3.720;2022-08-01T11:57:34;34.60;70.80
20977;DHT22;10647;51.016;3.720;2022-08-01T12:02:34;35.10;69.60
20977;DHT22;10647;51.016;3.720;2022-08-01T12:05:07;35.00;68.30
20977;DHT22;10647;51.016;3.720;2022-08-01T12:07:36;35.00;68.20
20977;DHT22;10647;51.016;3.720;2022-08-01T12:10:12;35.30;67.50
20977;DHT22;10647;51.016;3.720;2022-08-01T12:12:48;35.30;66.70
20977;DHT22;10647;51.016;3.720;2022-08-01T12:15:17;35.10;66.90
20977;DHT22;10647;51.016;3.720;2022-08-01T12:17:47;35.10;66.90
20977;DHT22;10647;51.016;3.720;2022-08-01T12:20:20;34.90;66.70
20977;DHT22;10647;51.016;3.720;2022-08-01T12:22:52;34.60;66.20
20977;DHT22;10647;51.016;3.720;2022-08-01T12:25:18;34.30;66.20
20977;DHT22;10647;51.016;3.720;2022-08-01T12:27:46;34.10;66.10
20977;DHT22;10647;51.016;3.720;2022-08-01T12:30:16;34.10;65.50
20977;DHT22;10647;51.016;3.720;2022-08-01T12:32:47;34.00;64.00
20977;DHT22;10647;51.016;3.720;2022-08-01T12:35:20;34.00;64.50
20977;DHT22;10647;51.016;3.720;2022-08-01T12:37:54;33.90;64.00
20977;DHT22;10647;51.016;3.720;2022-08-01T12:40:27;33.70;64.60
20977;DHT22;10647;51.016;3.720;2022-08-01T12:42:59;33.60;65.10
20977;DHT22;10647;51.016;3.720;2022-08-01T12:45:33;33.60;65.30
20977;DHT22;10647;51.016;3.720;2022-08-01T12:48:05;33.80;65.30
20977;DHT22;10647;51.016;3.720;2022-08-01T12:50:31;33.90;64.60
20977;DHT22;10647;51.016;3.720;2022-08-01T12:53:01;34.00;63.50
20977;DHT22;10647;51.016;3.720;2022-08-01T12:55:29;34.10;63.20
20977;DHT22;10647;51.016;3.720;2022-08-01T12:58:07;34.10;63.50
20977;DHT22;10647;51.016;3.720;2022-08-01T13:00:37;34.30;63.00
20977;DHT22;10647;51.016;3.720;2022-08-01T13:03:16;34.80;62.50
20977;DHT22;10647;51.016;3.720;2022-08-01T13:05:42;34.80;62.30
20977;DHT22;10647;51.016;3.720;2022-08-01T13:08:17;34.30;62.70
20977;DHT22;10647;51.016;3.720;2022-08-01T13:10:42;34.80;62.90
20977;DHT22;10647;51.016;3.720;2022-08-01T13:13:10;36.50;61.00
20977;DHT22;10647;51.016;3.720;2022-08-01T13:15:40;37.90;60.00
20977;DHT22;10647;51.016;3.720;2022-08-01T13:18:24;40.60;55.90
20977;DHT22;10647;51.016;3.720;2022-08-01T13:21:15;42.50;52.90
20977;DHT22;10647;51.016;3.720;2022-08-01T13:26:44;41.70;53.40
20977;DHT22;10647;51.016;3.720;2022-08-01T13:29:14;40.60;51.80
20977;DHT22;10647;51.016;3.720;2022-08-01T13:31:48;38.50;53.20
20977;DHT22;10647;51.016;3.720;2022-08-01T13:34:16;37.60;55.00
20977;DHT22;10647;51.016;3.720;2022-08-01T13:36:43;37.50;55.50
20977;DHT22;10647;51.016;3.720;2022-08-01T13:39:11;38.60;54.40
20977;DHT22;10647;51.016;3.720;2022-08-01T13:41:56;39.90;52.80
20977;DHT22;10647;51.016;3.720;2022-08-01T13:44:24;41.90;51.30
20977;DHT22;10647;51.016;3.720;2022-08-01T13:46:51;44.50;48.00
20977;DHT22;10647;51.016;3.720;2022-08-01T13:49:19;46.60;45.50
20977;DHT22;10647;51.016;3.720;2022-08-01T13:51:46;47.20;43.70
20977;DHT22;10647;51.016;3.720;2022-08-01T13:54:16;43.40;45.20
20977;DHT22;10647;51.016;3.720;2022-08-01T13:56:44;41.00;47.50
20977;DHT22;10647;51.016;3.720;2022-08-01T13:59:12;41.10;48.10
20977;DHT22;10647;51.016;3.720;2022-08-01T14:01:40;42.10;47.20
20977;DHT22;10647;51.016;3.720;2022-08-01T14:04:08;44.50;45.20
20977;DHT22;10647;51.016;3.720;2022-08-01T14:06:35;45.60;42.70
20977;DHT22;10647;51.016;3.720;2022-08-01T14:09:05;43.60;43.30
20977;DHT22;10647;51.016;3.720;2022-08-01T14:11:32;41.10;45.00
20977;DHT22;10647;51.016;3.720;2022-08-01T14:14:00;39.60;46.90
20977;DHT22;10647;51.016;3.720;2022-08-01T14:16:28;39.00;48.80
20977;DHT22;10647;51.016;3.720;2022-08-01T14:18:55;39.70;47.80
20977;DHT22;10647;51.016;3.720;2022-08-01T14:21:23;43.30;45.40
20977;DHT22;10647;51.016;3.720;2022-08-01T14:23:50;46.00;42.30
20977;DHT22;10647;51.016;3.720;2022-08-01T14:26:18;47.60;40.00
20977;DHT22;10647;51.016;3.720;2022-08-01T14:28:45;47.60;39.00
20977;DHT22;10647;51.016;3.720;2022-08-01T14:31:13;44.60;40.60
20977;DHT22;10647;51.016;3.720;2022-08-01T14:33:41;41.90;42.70
20977;DHT22;10647;51.016;3.720;2022-08-01T14:36:08;39.80;45.00
20977;DHT22;10647;51.016;3.720;2022-08-01T14:38:36;39.40;46.20
20977;DHT22;10647;51.016;3.720;2022-08-01T14:41:06;40.50;45.20
20977;DHT22;10647;51.016;3.720;2022-08-01T14:43:34;42.20;44.00
20977;DHT22;10647;51.016;3.720;2022-08-01T14:46:02;42.00;43.90
20977;DHT22;10647;51.016;3.720;2022-08-01T14:48:31;45.00;42.00
20977;DHT22;10647;51.016;3.720;2022-08-01T14:50:59;46.70;40.80
20977;DHT22;10647;51.016;3.720;2022-08-01T14:53:31;46.80;39.10
20977;DHT22;10647;51.016;3.720;2022-08-01T14:55:59;45.80;39.60
20977;DHT22;10647;51.016;3.720;2022-08-01T14:58:26;45.80;40.10
20977;DHT22;10647;51.016;3.720;2022-08-01T15:00:54;46.70;39.10
20977;DHT22;10647;51.016;3.720;2022-08-01T15:03:21;47.20;38.60
20977;DHT22;10647;51.016;3.720;2022-08-01T15:05:49;45.40;39.10
20977;DHT22;10647;51.016;3.720;2022-08-01T15:08:17;46.50;38.70
20977;DHT22;10647;51.016;3.720;2022-08-01T15:10:45;45.80;38.60
20977;DHT22;10647;51.016;3.720;2022-08-01T15:13:12;47.20;38.40
20977;DHT22;10647;51.016;3.720;2022-08-01T15:15:40;47.00;37.70
20977;DHT22;10647;51.016;3.720;2022-08-01T15:18:07;47.90;36.90
20977;DHT22;10647;51.016;3.720;2022-08-01T15:20:35;48.30;36.40
20977;DHT22;10647;51.016;3.720;2022-08-01T15:23:02;48.40;36.00
20977;DHT22;10647;51.016;3.720;2022-08-01T15:25:30;48.60;35.80
20977;DHT22;10647;51.016;3.720;2022-08-01T15:27:58;48.80;35.80
20977;DHT22;10647;51.016;3.720;2022-08-01T15:30:25;48.70;35.50
20977;DHT22;10647;51.016;3.720;2022-08-01T15:32:53;48.80;35.80
20977;DHT22;10647;51.016;3.720;2022-08-01T15:35:20;47.90;35.80
20977;DHT22;10647;51.016;3.720;2022-08-01T15:37:48;45.40;36.70
20977;DHT22;10647;51.016;3.720;2022-08-01T15:40:15;42.60;38.90
20977;DHT22;10647;51.016;3.720;2022-08-01T15:42:43;40.30;41.20
20977;DHT22;10647;51.016;3.720;2022-08-01T15:45:11;38.80;42.70
20977;DHT22;10647;51.016;3.720;2022-08-01T15:47:40;37.90;44.10
20977;DHT22;10647;51.016;3.720;2022-08-01T15:50:08;36.90;45.10
20977;DHT22;10647;51.016;3.720;2022-08-01T15:52:36;36.10;46.40
20977;DHT22;10647;51.016;3.720;2022-08-01T15:55:04;35.30;47.30
20977;DHT22;10647;51.016;3.720;2022-08-01T15:57:31;34.70;48.40
20977;DHT22;10647;51.016;3.720;2022-08-01T15:59:59;34.10;49.10
20977;DHT22;10647;51.016;3.720;2022-08-01T16:02:26;34.00;49.40
20977;DHT22;10647;51.016;3.720;2022-08-01T16:04:54;33.70;49.90
20977;DHT22;10647;51.016;3.720;2022-08-01T16:07:21;33.50;50.20
20977;DHT22;10647;51.016;3.720;2022-08-01T16:09:49;33.40;50.50
20977;DHT22;10647;51.016;3.720;2022-08-01T16:12:16;33.20;50.70
20977;DHT22;10647;51.016;3.720;2022-08-01T16:14:45;33.00;51.10
20977;DHT22;10647;51.016;3.720;2022-08-01T16:17:12;32.80;51.70
20977;DHT22;10647;51.016;3.720;2022-08-01T16:19:40;32.60;52.10
20977;DHT22;10647;51.016;3.720;2022-08-01T16:22:07;32.50;51.90
20977;DHT22;10647;51.016;3.720;2022-08-01T16:24:35;32.40;52.30
20977;DHT22;10647;51.016;3.720;2022-08-01T16:27:02;32.40;52.40
20977;DHT22;10647;51.016;3.720;2022-08-01T16:29:30;32.30;52.20
20977;DHT22;10647;51.016;3.720;2022-08-01T16:31:58;32.20;52.20
20977;DHT22;10647;51.016;3.720;2022-08-01T16:34:25;32.30;51.90
20977;DHT22;10647;51.016;3.720;2022-08-01T16:36:54;32.20;52.10
20977;DHT22;10647;51.016;3.720;2022-08-01T16:39:21;32.20;52.30